sensor_id;sensor_type;location;lat;lon;timestamp;pressure;altitude;pressure_sealevel;temperature;humidity
45872;BME280;32333;55.844;-3.210;2023-01-31T00:01:49;99363.93;;;4.04;100.00
45872;BME280;32333;55.844;-3.210;2023-01-31T00:04:17;99363.36;;;3.94;100.00
45872;BME280;32333;55.844;-3.210;2023-01-31T00:06:44;99360.50;;;4.20;100.00
45872;BME280;32333;55.844;-3.210;2023-01-31T00:09:12;99361.06;;;3.53;100.00
45872;BME280;32333;55.844;-3.210;2023-01-31T00:11:40;99359.73;;;4.37;100.00
45872;BME280;32333;55.844;-3.210;2023-01-31T00:14:35;99357.72;;;3.83;100.00
45872;BME280;32333;55.844;-3.210;2023-01-31T00:17:02;99347.30;;;4.01;100.00
45872;BME280;32333;55.844;-3.210;2023-01-31T00:19:30;99348.37;;;3.60;100.00
45872;BME280;32333;55.844;-3.210;2023-01-31T00:21:58;99365.13;;;3.71;100.00
45872;BME280;32333;55.844;-3.210;2023-01-31T00:24:26;99360.82;;;4.21;100.00
45872;BME280;32333;55.844;-3.210;2023-01-31T00:26:53;99356.17;;;3.72;100.00
45872;BME280;32333;55.844;-3.210;2023-01-31T00:29:21;99355.80;;;4.07;100.00
45872;BME280;32333;55.844;-3.210;2023-01-31T00:31:51;99360.76;;;3.66;100.00
45872;BME280;32333;55.844;-3.210;2023-01-31T00:34:19;99366.24;;;4.00;100.00
45872;BME280;32333;55.844;-3.210;2023-01-31T00:36:47;99370.27;;;4.49;100.00
45872;BME280;32333;55.844;-3.210;2023-01-31T00:39:15;99357.49;;;3.85;100.00
45872;BME280;32333;55.844;-3.210;2023-01-31T00:41:42;99349.14;;;4.56;100.00
45872;BME280;32333;55.844;-3.210;2023-01-31T00:44:36;99344.83;;;3.60;100.00
45872;BME280;32333;55.844;-3.210;2023-01-31T00:47:04;99349.76;;;4.26;100.00
45872;BME280;32333;55.844;-3.210;2023-01-31T00:49:31;99355.47;;;4.19;100.00
45872;BME280;32333;55.844;-3.210;2023-01-31T00:51:59;99342.86;;;3.90;100.00
45872;BME280;32333;55.844;-3.210;2023-01-31T00:54:26;99336.26;;;3.84;100.00
45872;BME280;32333;55.844;-3.210;2023-01-31T00:56:54;99333.07;;;3.87;100.00
45872;BME280;32333;55.844;-3.210;2023-01-31T00:59:21;99319.83;;;4.33;100.00
45872;BME280;32333;55.844;-3.210;2023-01-31T01:01:49;99325.31;;;4.27;100.00
45872;BME280;32333;55.844;-3.210;2023-01-31T01:04:17;99318.51;;;3.94;100.00
45872;BME280;32333;55.844;-3.210;2023-01-31T01:06:44;99315.97;;;3.99;100.00
45872;BME280;32333;55.844;-3.210;2023-01-31T01:09:14;99308.65;;;4.08;100.00
45872;BME280;32333;55.844;-3.210;2023-01-31T01:11:41;99309.10;;;4.15;100.00
45872;BME280;32333;55.844;-3.210;2023-01-31T01:14:36;99291.36;;;4.12;100.00
45872;BME280;32333;55.844;-3.210;2023-01-31T01:17:04;99312.71;;;4.15;100.00
45872;BME280;32333;55.844;-3.210;2023-01-31T01:19:31;99301.64;;;3.65;100.00
45872;BME280;32333;55.844;-3.210;2023-01-31T01:22:00;99300.32;;;4.34;100.00
45872;BME280;32333;55.844;-3.210;2023-01-31T01:24:27;99304.56;;;4.47;100.00
45872;BME280;32333;55.844;-3.210;2023-01-31T01:26:55;99301.85;;;3.99;100.00
45872;BME280;32333;55.844;-3.210;2023-01-31T01:29:23;99292.48;;;3.84;100.00
45872;BME280;32333;55.844;-3.210;2023-01-31T01:31:50;99299.61;;;3.97;100.00
45872;BME280;32333;55.844;-3.210;2023-01-31T01:34:18;99305.38;;;3.91;100.00
45872;BME280;32333;55.844;-3.210;2023-01-31T01:36:45;99312.50;;;4.19;100.00
45872;BME280;32333;55.844;-3.210;2023-01-31T01:39:14;99310.69;;;4.31;100.00
45872;BME280;32333;55.844;-3.210;2023-01-31T01:41:41;99315.52;;;4.03;100.00
45872;BME280;32333;55.844;-3.210;2023-01-31T01:44:46;99308.25;;;4.78;100.00
45872;BME280;32333;55.844;-3.210;2023-01-31T01:47:19;99287.14;;;4.38;100.00
45872;BME280;32333;55.844;-3.210;2023-01-31T01:49:51;99276.42;;;4.05;100.00
45872;BME280;32333;55.844;-3.210;2023-01-31T01:52:21;99295.60;;;4.42;100.00
45872;BME280;32333;55.844;-3.210;2023-01-31T01:54:59;99263.70;;;4.07;100.00
45872;BME280;32333;55.844;-3.210;2023-01-31T01:57:34;99268.79;;;4.39;100.00
45872;BME280;32333;55.844;-3.210;2023-01-31T02:00:11;99268.60;;;3.99;100.00
45872;BME280;32333;55.844;-3.210;2023-01-31T02:02:40;99258.16;;;4.82;100.00
45872;BME280;32333;55.844;-3.210;2023-01-31T02:05:12;99249.82;;;4.46;100.00
45872;BME280;32333;55.844;-3.210;2023-01-31T02:07:42;99251.72;;;4.02;100.00
45872;BME280;32333;55.844;-3.210;2023-01-31T02:10:14;99254.09;;;4.14;100.00
45872;BME280;32333;55.844;-3.210;2023-01-31T02:14:36;99258.90;;;4.62;100.00
45872;BME280;32333;55.844;-3.210;2023-01-31T02:17:03;99256.99;;;4.48;100.00
45872;BME280;32333;55.844;-3.210;2023-01-31T02:19:45;99259.23;;;4.66;100.00
45872;BME280;32333;55.844;-3.210;2023-01-31T02:22:20;99252.79;;;4.39;100.00
45872;BME280;32333;55.844;-3.210;2023-01-31T02:25:55;99244.00;;;4.74;100.00
45872;BME280;32333;55.844;-3.210;2023-01-31T02:28:53;99251.61;;;4.46;100.00
45872;BME280;32333;55.844;-3.210;2023-01-31T02:32:21;99272.04;;;4.98;100.00
45872;BME280;32333;55.844;-3.210;2023-01-31T02:35:05;99265.45;;;4.67;100.00
45872;BME280;32333;55.844;-3.210;2023-01-31T02:37:41;99271.47;;;4.93;100.00
45872;BME280;32333;55.844;-3.210;2023-01-31T02:40:18;99279.44;;;4.85;100.00
45872;BME280;32333;55.844;-3.210;2023-01-31T02:44:40;99282.07;;;4.64;100.00
45872;BME280;32333;55.844;-3.210;2023-01-31T02:47:18;99274.33;;;4.40;100.00
45872;BME280;32333;55.844;-3.210;2023-01-31T02:49:55;99270.62;;;4.71;100.00
45872;BME280;32333;55.844;-3.210;2023-01-31T02:52:30;99273.95;;;4.70;100.00
45872;BME280;32333;55.844;-3.210;2023-01-31T02:55:08;99271.93;;;4.37;100.00
45872;BME280;32333;55.844;-3.210;2023-01-31T02:57:38;99247.33;;;4.48;100.00
45872;BME280;32333;55.844;-3.210;2023-01-31T03:00:08;99263.94;;;4.00;100.00
45872;BME280;32333;55.844;-3.210;2023-01-31T03:02:37;99258.55;;;4.53;100.00
45872;BME280;32333;55.844;-3.210;2023-01-31T03:05:05;99259.28;;;4.19;100.00
45872;BME280;32333;55.844;-3.210;2023-01-31T03:07:34;99265.02;;;3.98;100.00
45872;BME280;32333;55.844;-3.210;2023-01-31T03:10:15;99270.97;;;4.70;100.00
45872;BME280;32333;55.844;-3.210;2023-01-31T03:14:43;99272.58;;;4.39;100.00
45872;BME280;32333;55.844;-3.210;2023-01-31T03:17:20;99269.82;;;4.66;100.00
45872;BME280;32333;55.844;-3.210;2023-01-31T03:19:57;99266.22;;;5.04;100.00
45872;BME280;32333;55.844;-3.210;2023-01-31T03:22:30;99260.35;;;4.69;100.00
45872;BME280;32333;55.844;-3.210;2023-01-31T03:24:59;99269.62;;;4.45;100.00
45872;BME280;32333;55.844;-3.210;2023-01-31T03:27:28;99288.62;;;4.59;100.00
45872;BME280;32333;55.844;-3.210;2023-01-31T03:30:02;99289.72;;;4.48;100.00
45872;BME280;32333;55.844;-3.210;2023-01-31T03:32:34;99272.69;;;4.67;100.00
45872;BME280;32333;55.844;-3.210;2023-01-31T03:35:06;99274.96;;;4.66;100.00
45872;BME280;32333;55.844;-3.210;2023-01-31T03:37:40;99275.09;;;4.54;100.00
45872;BME280;32333;55.844;-3.210;2023-01-31T03:40:16;99269.75;;;4.44;100.00
45872;BME280;32333;55.844;-3.210;2023-01-31T03:44:41;99256.17;;;4.08;100.00
45872;BME280;32333;55.844;-3.210;2023-01-31T03:47:14;99237.06;;;4.18;100.00
45872;BME280;32333;55.844;-3.210;2023-01-31T03:49:45;99244.13;;;3.59;100.00
45872;BME280;32333;55.844;-3.210;2023-01-31T03:52:17;99233.41;;;3.80;100.00
45872;BME280;32333;55.844;-3.210;2023-01-31T03:54:49;99244.74;;;3.61;100.00
45872;BME280;32333;55.844;-3.210;2023-01-31T03:57:23;99251.33;;;3.71;100.00
45872;BME280;32333;55.844;-3.210;2023-01-31T03:59:56;99249.42;;;3.86;100.00
45872;BME280;32333;55.844;-3.210;2023-01-31T04:02:30;99238.11;;;3.41;100.00
45872;BME280;32333;55.844;-3.210;2023-01-31T04:05:04;99232.05;;;3.45;100.00
45872;BME280;32333;55.844;-3.210;2023-01-31T04:07:33;99226.76;;;3.14;100.00
45872;BME280;32333;55.844;-3.210;2023-01-31T04:10:01;99219.41;;;3.49;100.00
45872;BME280;32333;55.844;-3.210;2023-01-31T04:14:35;99235.25;;;3.27;100.00
45872;BME280;32333;55.844;-3.210;2023-01-31T04:17:03;99221.51;;;3.68;100.00
45872;BME280;32333;55.844;-3.210;2023-01-31T04:19:31;99214.07;;;3.58;100.00
45872;BME280;32333;55.844;-3.210;2023-01-31T04:22:00;99213.47;;;3.08;100.00
45872;BME280;32333;55.844;-3.210;2023-01-31T04:24:27;99206.20;;;3.64;100.00
45872;BME280;32333;55.844;-3.210;2023-01-31T04:26:55;99212.33;;;3.60;100.00
45872;BME280;32333;55.844;-3.210;2023-01-31T04:29:24;99208.34;;;3.29;100.00
45872;BME280;32333;55.844;-3.210;2023-01-31T04:31:51;99210.28;;;3.50;100.00
45872;BME280;32333;55.844;-3.210;2023-01-31T04:34:18;99198.67;;;2.82;100.00
45872;BME280;32333;55.844;-3.210;2023-01-31T04:36:46;99202.49;;;3.05;100.00
45872;BME280;32333;55.844;-3.210;2023-01-31T04:39:14;99194.60;;;3.53;100.00
45872;BME280;32333;55.844;-3.210;2023-01-31T04:41:41;99193.72;;;2.79;100.00
45872;BME280;32333;55.844;-3.210;2023-01-31T04:44:36;99195.15;;;3.28;100.00
45872;BME280;32333;55.844;-3.210;2023-01-31T04:47:03;99194.04;;;3.15;100.00
45872;BME280;32333;55.844;-3.210;2023-01-31T04:49:31;99195.58;;;3.06;100.00
45872;BME280;32333;55.844;-3.210;2023-01-31T04:51:59;99182.82;;;2.95;100.00
45872;BME280;32333;55.844;-3.210;2023-01-31T04:54:28;99181.86;;;3.06;100.00
45872;BME280;32333;55.844;-3.210;2023-01-31T04:56:55;99196.73;;;3.09;100.00
45872;BME280;32333;55.844;-3.210;2023-01-31T04:59:22;99200.38;;;2.97;100.00
45872;BME280;32333;55.844;-3.210;2023-01-31T05:01:51;99202.37;;;3.20;100.00
45872;BME280;32333;55.844;-3.210;2023-01-31T05:04:19;99193.08;;;3.35;100.00
45872;BME280;32333;55.844;-3.210;2023-01-31T05:06:46;99174.29;;;3.01;100.00
45872;BME280;32333;55.844;-3.210;2023-01-31T05:09:15;99174.99;;;3.27;100.00
45872;BME280;32333;55.844;-3.210;2023-01-31T05:11:44;99169.91;;;3.19;100.00
45872;BME280;32333;55.844;-3.210;2023-01-31T05:14:35;99182.03;;;3.62;100.00
45872;BME280;32333;55.844;-3.210;2023-01-31T05:17:03;99181.95;;;2.76;100.00
45872;BME280;32333;55.844;-3.210;2023-01-31T05:19:30;99165.35;;;3.16;100.00
45872;BME280;32333;55.844;-3.210;2023-01-31T05:21:59;99155.97;;;2.92;100.00
45872;BME280;32333;55.844;-3.210;2023-01-31T05:24:28;99149.85;;;3.06;100.00
45872;BME280;32333;55.844;-3.210;2023-01-31T05:26:58;99138.88;;;2.98;100.00
45872;BME280;32333;55.844;-3.210;2023-01-31T05:29:27;99160.30;;;3.21;100.00
45872;BME280;32333;55.844;-3.210;2023-01-31T05:31:56;99165.72;;;2.73;100.00
45872;BME280;32333;55.844;-3.210;2023-01-31T05:34:25;99153.93;;;3.64;100.00
45872;BME280;32333;55.844;-3.210;2023-01-31T05:36:53;99163.12;;;3.32;100.00
45872;BME280;32333;55.844;-3.210;2023-01-31T05:39:21;99163.20;;;2.87;100.00
45872;BME280;32333;55.844;-3.210;2023-01-31T05:41:49;99171.69;;;3.02;100.00
45872;BME280;32333;55.844;-3.210;2023-01-31T05:44:35;99190.63;;;3.07;100.00
45872;BME280;32333;55.844;-3.210;2023-01-31T05:47:02;99201.49;;;2.63;100.00
45872;BME280;32333;55.844;-3.210;2023-01-31T05:49:31;99230.62;;;2.79;100.00
45872;BME280;32333;55.844;-3.210;2023-01-31T05:51:58;99227.53;;;2.89;100.00
45872;BME280;32333;55.844;-3.210;2023-01-31T05:54:26;99220.47;;;2.04;100.00
45872;BME280;32333;55.844;-3.210;2023-01-31T05:56:54;99229.00;;;1.40;100.00
45872;BME280;32333;55.844;-3.210;2023-01-31T05:59:22;99218.54;;;1.21;100.00
45872;BME280;32333;55.844;-3.210;2023-01-31T06:01:49;99211.11;;;1.58;100.00
45872;BME280;32333;55.844;-3.210;2023-01-31T06:04:16;99196.18;;;1.45;100.00
45872;BME280;32333;55.844;-3.210;2023-01-31T06:06:45;99176.24;;;1.76;100.00
45872;BME280;32333;55.844;-3.210;2023-01-31T06:09:13;99186.14;;;1.47;100.00
45872;BME280;32333;55.844;-3.210;2023-01-31T06:11:40;99184.39;;;1.60;100.00
45872;BME280;32333;55.844;-3.210;2023-01-31T06:14:36;99180.05;;;1.31;100.00
45872;BME280;32333;55.844;-3.210;2023-01-31T06:17:03;99175.44;;;1.09;100.00
45872;BME280;32333;55.844;-3.210;2023-01-31T06:19:30;99164.44;;;1.47;100.00
45872;BME280;32333;55.844;-3.210;2023-01-31T06:21:58;99146.19;;;1.71;100.00
45872;BME280;32333;55.844;-3.210;2023-01-31T06:24:25;99145.57;;;1.78;100.00
45872;BME280;32333;55.844;-3.210;2023-01-31T06:26:53;99145.13;;;1.67;100.00
45872;BME280;32333;55.844;-3.210;2023-01-31T06:29:20;99150.91;;;1.82;100.00
45872;BME280;32333;55.844;-3.210;2023-01-31T06:31:47;99156.74;;;1.78;100.00
45872;BME280;32333;55.844;-3.210;2023-01-31T06:34:16;99167.80;;;1.71;100.00
45872;BME280;32333;55.844;-3.210;2023-01-31T06:36:57;99169.48;;;1.70;100.00
45872;BME280;32333;55.844;-3.210;2023-01-31T06:39:26;99170.73;;;1.61;100.00
45872;BME280;32333;55.844;-3.210;2023-01-31T06:41:54;99170.72;;;1.89;100.00
45872;BME280;32333;55.844;-3.210;2023-01-31T06:44:36;99172.83;;;1.96;100.00
45872;BME280;32333;55.844;-3.210;2023-01-31T06:47:04;99160.70;;;1.60;100.00
45872;BME280;32333;55.844;-3.210;2023-01-31T06:49:33;99177.02;;;2.35;100.00
45872;BME280;32333;55.844;-3.210;2023-01-31T06:52:01;99165.90;;;1.98;100.00
45872;BME280;32333;55.844;-3.210;2023-01-31T06:54:29;99180.35;;;1.66;100.00
45872;BME280;32333;55.844;-3.210;2023-01-31T06:56:56;99192.14;;;2.01;100.00
45872;BME280;32333;55.844;-3.210;2023-01-31T06:59:25;99187.69;;;1.34;100.00
45872;BME280;32333;55.844;-3.210;2023-01-31T07:01:53;99187.99;;;1.80;100.00
45872;BME280;32333;55.844;-3.210;2023-01-31T07:04:20;99189.99;;;1.70;100.00
45872;BME280;32333;55.844;-3.210;2023-01-31T07:06:47;99198.52;;;1.52;100.00
45872;BME280;32333;55.844;-3.210;2023-01-31T07:09:15;99200.98;;;2.50;100.00
45872;BME280;32333;55.844;-3.210;2023-01-31T07:11:42;99212.54;;;1.43;100.00
45872;BME280;32333;55.844;-3.210;2023-01-31T07:14:36;99219.92;;;1.51;100.00
45872;BME280;32333;55.844;-3.210;2023-01-31T07:17:04;99214.87;;;1.29;100.00
45872;BME280;32333;55.844;-3.210;2023-01-31T07:19:31;99247.16;;;1.78;100.00
45872;BME280;32333;55.844;-3.210;2023-01-31T07:21:58;99232.65;;;1.52;100.00
45872;BME280;32333;55.844;-3.210;2023-01-31T07:24:26;99235.06;;;1.79;100.00
45872;BME280;32333;55.844;-3.210;2023-01-31T07:26:55;99233.29;;;1.60;100.00
45872;BME280;32333;55.844;-3.210;2023-01-31T07:29:22;99221.02;;;1.44;100.00
45872;BME280;32333;55.844;-3.210;2023-01-31T07:31:52;99234.93;;;1.65;100.00
45872;BME280;32333;55.844;-3.210;2023-01-31T07:34:20;99242.55;;;1.71;100.00
45872;BME280;32333;55.844;-3.210;2023-01-31T07:36:49;99245.57;;;1.87;100.00
45872;BME280;32333;55.844;-3.210;2023-01-31T07:39:21;99245.86;;;1.95;100.00
45872;BME280;32333;55.844;-3.210;2023-01-31T07:41:50;99238.59;;;1.55;100.00
45872;BME280;32333;55.844;-3.210;2023-01-31T07:44:36;99232.10;;;1.84;100.00
45872;BME280;32333;55.844;-3.210;2023-01-31T07:47:05;99266.79;;;1.09;100.00
45872;BME280;32333;55.844;-3.210;2023-01-31T07:49:33;99248.15;;;0.80;100.00
45872;BME280;32333;55.844;-3.210;2023-01-31T07:52:01;99248.04;;;2.02;100.00
45872;BME280;32333;55.844;-3.210;2023-01-31T07:54:28;99243.79;;;1.83;100.00
45872;BME280;32333;55.844;-3.210;2023-01-31T07:56:55;99241.47;;;1.86;100.00
45872;BME280;32333;55.844;-3.210;2023-01-31T07:59:24;99254.24;;;1.53;100.00
45872;BME280;32333;55.844;-3.210;2023-01-31T08:01:51;99273.90;;;1.54;100.00
45872;BME280;32333;55.844;-3.210;2023-01-31T08:04:19;99283.31;;;0.84;100.00
45872;BME280;32333;55.844;-3.210;2023-01-31T08:06:47;99275.28;;;1.32;100.00
45872;BME280;32333;55.844;-3.210;2023-01-31T08:09:15;99288.65;;;1.79;100.00
45872;BME280;32333;55.844;-3.210;2023-01-31T08:11:42;99271.54;;;1.06;100.00
45872;BME280;32333;55.844;-3.210;2023-01-31T08:14:36;99301.81;;;1.05;100.00
45872;BME280;32333;55.844;-3.210;2023-01-31T08:17:03;99304.96;;;1.05;100.00
45872;BME280;32333;55.844;-3.210;2023-01-31T08:19:31;99307.76;;;1.27;100.00
45872;BME280;32333;55.844;-3.210;2023-01-31T08:21:59;99308.49;;;1.11;100.00
45872;BME280;32333;55.844;-3.210;2023-01-31T08:24:27;99304.55;;;0.57;100.00
45872;BME280;32333;55.844;-3.210;2023-01-31T08:26:54;99304.12;;;0.79;100.00
45872;BME280;32333;55.844;-3.210;2023-01-31T08:29:22;99304.34;;;0.96;100.00
45872;BME280;32333;55.844;-3.210;2023-01-31T08:31:51;99310.36;;;1.69;100.00
45872;BME280;32333;55.844;-3.210;2023-01-31T08:34:18;99307.32;;;1.07;100.00
45872;BME280;32333;55.844;-3.210;2023-01-31T08:36:46;99282.60;;;0.97;100.00
45872;BME280;32333;55.844;-3.210;2023-01-31T08:39:14;99298.43;;;1.13;100.00
45872;BME280;32333;55.844;-3.210;2023-01-31T08:41:41;99300.85;;;0.98;100.00
45872;BME280;32333;55.844;-3.210;2023-01-31T08:44:36;99310.55;;;1.09;100.00
45872;BME280;32333;55.844;-3.210;2023-01-31T08:47:04;99313.56;;;1.51;100.00
45872;BME280;32333;55.844;-3.210;2023-01-31T08:49:31;99300.57;;;1.01;100.00
45872;BME280;32333;55.844;-3.210;2023-01-31T08:51:59;99307.46;;;1.47;100.00
45872;BME280;32333;55.844;-3.210;2023-01-31T08:54:27;99308.76;;;1.45;100.00
45872;BME280;32333;55.844;-3.210;2023-01-31T08:56:54;99298.56;;;0.77;100.00
45872;BME280;32333;55.844;-3.210;2023-01-31T08:59:22;99300.67;;;0.90;100.00
45872;BME280;32333;55.844;-3.210;2023-01-31T09:01:50;99308.10;;;1.34;100.00
45872;BME280;32333;55.844;-3.210;2023-01-31T09:04:18;99302.90;;;1.15;100.00
45872;BME280;32333;55.844;-3.210;2023-01-31T09:06:45;99304.23;;;0.75;100.00
45872;BME280;32333;55.844;-3.210;2023-01-31T09:09:14;99305.89;;;1.40;100.00
45872;BME280;32333;55.844;-3.210;2023-01-31T09:11:41;99302.27;;;1.30;100.00
45872;BME280;32333;55.844;-3.210;2023-01-31T09:14:36;99307.51;;;1.76;100.00
45872;BME280;32333;55.844;-3.210;2023-01-31T09:17:03;99320.39;;;1.94;100.00
45872;BME280;32333;55.844;-3.210;2023-01-31T09:19:30;99326.01;;;2.22;100.00
45872;BME280;32333;55.844;-3.210;2023-01-31T09:21:58;99335.51;;;2.12;100.00
45872;BME280;32333;55.844;-3.210;2023-01-31T09:24:26;99335.42;;;2.36;100.00
45872;BME280;32333;55.844;-3.210;2023-01-31T09:26:53;99333.13;;;1.43;100.00
45872;BME280;32333;55.844;-3.210;2023-01-31T09:29:21;99347.10;;;1.46;100.00
45872;BME280;32333;55.844;-3.210;2023-01-31T09:31:50;99347.08;;;1.38;100.00
45872;BME280;32333;55.844;-3.210;2023-01-31T09:34:18;99345.08;;;1.45;100.00
45872;BME280;32333;55.844;-3.210;2023-01-31T09:36:46;99353.31;;;1.39;100.00
45872;BME280;32333;55.844;-3.210;2023-01-31T09:39:15;99355.72;;;1.11;100.00
45872;BME280;32333;55.844;-3.210;2023-01-31T09:41:44;99347.60;;;1.10;100.00
45872;BME280;32333;55.844;-3.210;2023-01-31T09:44:39;99349.29;;;0.71;100.00
45872;BME280;32333;55.844;-3.210;2023-01-31T09:47:15;99361.03;;;1.67;100.00
45872;BME280;32333;55.844;-3.210;2023-01-31T09:49:49;99372.57;;;2.01;100.00
45872;BME280;32333;55.844;-3.210;2023-01-31T09:52:18;99367.11;;;1.72;100.00
45872;BME280;32333;55.844;-3.210;2023-01-31T09:54:46;99359.35;;;2.29;100.00
45872;BME280;32333;55.844;-3.210;2023-01-31T09:57:25;99353.48;;;2.17;100.00
45872;BME280;32333;55.844;-3.210;2023-01-31T10:00:00;99351.76;;;1.69;100.00
45872;BME280;32333;55.844;-3.210;2023-01-31T10:02:45;99367.70;;;1.94;100.00
45872;BME280;32333;55.844;-3.210;2023-01-31T10:05:25;99364.37;;;1.60;100.00
45872;BME280;32333;55.844;-3.210;2023-01-31T10:08:02;99373.18;;;1.44;100.00
45872;BME280;32333;55.844;-3.210;2023-01-31T10:10:35;99368.24;;;1.51;100.00
45872;BME280;32333;55.844;-3.210;2023-01-31T10:14:40;99383.33;;;1.83;100.00
45872;BME280;32333;55.844;-3.210;2023-01-31T10:17:14;99396.76;;;1.75;100.00
45872;BME280;32333;55.844;-3.210;2023-01-31T10:19:49;99394.33;;;1.91;100.00
45872;BME280;32333;55.844;-3.210;2023-01-31T10:22:22;99395.08;;;1.61;100.00
45872;BME280;32333;55.844;-3.210;2023-01-31T10:24:57;99390.04;;;1.30;100.00
45872;BME280;32333;55.844;-3.210;2023-01-31T10:27:37;99401.86;;;1.67;100.00
45872;BME280;32333;55.844;-3.210;2023-01-31T10:30:15;99410.86;;;1.47;100.00
45872;BME280;32333;55.844;-3.210;2023-01-31T10:32:44;99408.49;;;1.72;100.00
45872;BME280;32333;55.844;-3.210;2023-01-31T10:35:16;99406.13;;;1.57;100.00
45872;BME280;32333;55.844;-3.210;2023-01-31T10:37:47;99417.14;;;1.26;100.00
45872;BME280;32333;55.844;-3.210;2023-01-31T10:40:18;99416.86;;;1.48;100.00
45872;BME280;32333;55.844;-3.210;2023-01-31T10:44:42;99417.33;;;2.57;100.00
45872;BME280;32333;55.844;-3.210;2023-01-31T10:47:14;99417.99;;;2.18;100.00
45872;BME280;32333;55.844;-3.210;2023-01-31T10:49:45;99430.93;;;1.63;100.00
45872;BME280;32333;55.844;-3.210;2023-01-31T10:52:26;99432.53;;;1.68;100.00
45872;BME280;32333;55.844;-3.210;2023-01-31T10:55:06;99429.75;;;2.30;100.00
45872;BME280;32333;55.844;-3.210;2023-01-31T10:57:38;99441.46;;;2.17;100.00
45872;BME280;32333;55.844;-3.210;2023-01-31T11:00:10;99460.08;;;1.85;100.00
45872;BME280;32333;55.844;-3.210;2023-01-31T11:02:39;99453.38;;;1.56;100.00
45872;BME280;32333;55.844;-3.210;2023-01-31T11:05:15;99457.94;;;1.79;100.00
45872;BME280;32333;55.844;-3.210;2023-01-31T11:07:44;99458.45;;;2.01;100.00
45872;BME280;32333;55.844;-3.210;2023-01-31T11:10:23;99453.30;;;1.28;100.00
45872;BME280;32333;55.844;-3.210;2023-01-31T11:14:36;99442.02;;;1.89;100.00
45872;BME280;32333;55.844;-3.210;2023-01-31T11:17:06;99426.97;;;1.75;100.00
45872;BME280;32333;55.844;-3.210;2023-01-31T11:19:39;99439.68;;;1.93;100.00
45872;BME280;32333;55.844;-3.210;2023-01-31T11:22:20;99438.17;;;2.64;100.00
45872;BME280;32333;55.844;-3.210;2023-01-31T11:24:49;99430.24;;;2.72;100.00
45872;BME280;32333;55.844;-3.210;2023-01-31T11:27:28;99434.58;;;2.48;100.00
45872;BME280;32333;55.844;-3.210;2023-01-31T11:29:58;99441.60;;;2.20;100.00
45872;BME280;32333;55.844;-3.210;2023-01-31T11:32:29;99464.54;;;2.25;100.00
45872;BME280;32333;55.844;-3.210;2023-01-31T11:34:58;99481.69;;;2.64;100.00
45872;BME280;32333;55.844;-3.210;2023-01-31T11:37:26;99467.75;;;2.98;100.00
45872;BME280;32333;55.844;-3.210;2023-01-31T11:39:55;99481.32;;;2.93;100.00
45872;BME280;32333;55.844;-3.210;2023-01-31T11:44:36;99478.94;;;2.61;100.00
45872;BME280;32333;55.844;-3.210;2023-01-31T11:47:04;99485.98;;;2.10;100.00
45872;BME280;32333;55.844;-3.210;2023-01-31T11:49:41;99478.55;;;2.68;100.00
45872;BME280;32333;55.844;-3.210;2023-01-31T11:52:12;99488.63;;;2.80;100.00
45872;BME280;32333;55.844;-3.210;2023-01-31T11:54:44;99486.73;;;2.03;100.00
45872;BME280;32333;55.844;-3.210;2023-01-31T11:57:15;99478.05;;;2.64;100.00
45872;BME280;32333;55.844;-3.210;2023-01-31T11:59:43;99484.68;;;2.25;100.00
45872;BME280;32333;55.844;-3.210;2023-01-31T12:02:24;99490.32;;;2.41;100.00
45872;BME280;32333;55.844;-3.210;2023-01-31T12:04:53;99491.76;;;2.14;100.00
45872;BME280;32333;55.844;-3.210;2023-01-31T12:07:22;99481.05;;;1.66;100.00
45872;BME280;32333;55.844;-3.210;2023-01-31T12:09:51;99493.57;;;1.85;100.00
45872;BME280;32333;55.844;-3.210;2023-01-31T12:14:38;99487.32;;;1.62;100.00
45872;BME280;32333;55.844;-3.210;2023-01-31T12:17:09;99475.16;;;1.80;100.00
45872;BME280;32333;55.844;-3.210;2023-01-31T12:19:45;99477.01;;;1.76;100.00
45872;BME280;32333;55.844;-3.210;2023-01-31T12:22:21;99469.92;;;2.19;100.00
45872;BME280;32333;55.844;-3.210;2023-01-31T12:25:03;99473.68;;;2.19;100.00
45872;BME280;32333;55.844;-3.210;2023-01-31T12:27:41;99466.53;;;1.93;100.00
45872;BME280;32333;55.844;-3.210;2023-01-31T12:30:33;99457.73;;;2.00;100.00
45872;BME280;32333;55.844;-3.210;2023-01-31T12:33:19;99457.92;;;2.00;100.00
45872;BME280;32333;55.844;-3.210;2023-01-31T12:36:04;99432.55;;;1.73;100.00
45872;BME280;32333;55.844;-3.210;2023-01-31T12:38:50;99461.03;;;1.82;100.00
45872;BME280;32333;55.844;-3.210;2023-01-31T13:14:38;99421.81;;;3.20;100.00
45872;BME280;32333;55.844;-3.210;2023-01-31T13:17:11;99405.89;;;3.10;100.00
45872;BME280;32333;55.844;-3.210;2023-01-31T13:19:44;99411.36;;;3.46;100.00
45872;BME280;32333;55.844;-3.210;2023-01-31T13:22:17;99410.41;;;2.81;100.00
45872;BME280;32333;55.844;-3.210;2023-01-31T13:24:49;99418.38;;;2.84;100.00
45872;BME280;32333;55.844;-3.210;2023-01-31T13:27:23;99412.14;;;2.75;100.00
45872;BME280;32333;55.844;-3.210;2023-01-31T13:29:58;99412.94;;;2.73;100.00
45872;BME280;32333;55.844;-3.210;2023-01-31T13:32:30;99415.46;;;3.16;100.00
45872;BME280;32333;55.844;-3.210;2023-01-31T13:35:03;99404.51;;;3.54;100.00
45872;BME280;32333;55.844;-3.210;2023-01-31T13:37:36;99397.21;;;3.20;100.00
45872;BME280;32333;55.844;-3.210;2023-01-31T13:40:16;99395.25;;;3.48;100.00
45872;BME280;32333;55.844;-3.210;2023-01-31T13:44:35;99403.88;;;2.91;100.00
45872;BME280;32333;55.844;-3.210;2023-01-31T13:47:07;99399.65;;;2.61;100.00
45872;BME280;32333;55.844;-3.210;2023-01-31T13:49:43;99408.63;;;2.89;100.00
45872;BME280;32333;55.844;-3.210;2023-01-31T13:52:17;99398.49;;;3.14;100.00
45872;BME280;32333;55.844;-3.210;2023-01-31T13:54:50;99394.79;;;3.12;100.00
45872;BME280;32333;55.844;-3.210;2023-01-31T13:57:22;99386.56;;;2.97;100.00
45872;BME280;32333;55.844;-3.210;2023-01-31T13:59:52;99387.97;;;2.92;100.00
45872;BME280;32333;55.844;-3.210;2023-01-31T14:02:22;99394.52;;;3.18;100.00
45872;BME280;32333;55.844;-3.210;2023-01-31T14:04:49;99408.75;;;3.15;100.00
45872;BME280;32333;55.844;-3.210;2023-01-31T14:07:19;99393.23;;;3.02;100.00
45872;BME280;32333;55.844;-3.210;2023-01-31T14:10:27;99399.35;;;2.64;100.00